createdAt,value
2019-05-30T00:01:46.315Z,3.50
2019-05-30T00:03:50.143Z,4.00
2019-05-30T00:05:54.308Z,3.42
2019-05-30T00:08:00.330Z,3.20
2019-05-30T00:10:05.553Z,3.83
2019-05-30T00:12:09.377Z,3.37
2019-05-30T00:14:13.257Z,3.27
2019-05-30T00:16:17.052Z,3.92
2019-05-30T00:18:20.525Z,3.92
2019-05-30T00:20:24.364Z,3.45
2019-05-30T00:22:28.259Z,3.83
2019-05-30T00:24:31.723Z,3.85
2019-05-30T00:26:35.560Z,3.90
2019-05-30T00:28:39.357Z,3.85
2019-05-30T00:30:43.160Z,4.03
2019-05-30T00:32:46.963Z,3.72
2019-05-30T00:34:50.428Z,3.85
2019-05-30T00:36:53.896Z,4.12
2019-05-30T00:38:57.688Z,3.58
2019-05-30T00:41:02.089Z,4.10
2019-05-30T00:45:20.546Z,3.30
2019-05-30T00:47:16.366Z,3.35
2019-05-30T00:49:20.252Z,4.22
2019-05-30T00:51:23.699Z,3.98
2019-05-30T00:53:27.547Z,4.12
2019-05-30T00:55:31.450Z,4.03
2019-05-30T00:57:35.259Z,4.03
2019-05-30T00:59:38.790Z,3.77
2019-05-30T01:01:42.252Z,4.83
2019-05-30T01:03:46.042Z,4.12
2019-05-30T01:05:49.839Z,4.33
2019-05-30T01:07:53.643Z,4.00
2019-05-30T01:09:57.129Z,3.70
2019-05-30T01:12:01.083Z,3.70
2019-05-30T01:14:05.486Z,4.50
2019-05-30T01:16:09.095Z,4.12
2019-05-30T01:18:12.961Z,3.62
2019-05-30T01:20:16.597Z,3.90
2019-05-30T01:22:20.057Z,4.17
2019-05-30T01:24:23.524Z,4.45
2019-05-30T01:26:27.356Z,4.03
2019-05-30T01:28:32.281Z,4.00
2019-05-30T01:30:36.088Z,3.95
2019-05-30T01:32:39.892Z,5.40
2019-05-30T01:34:43.684Z,4.22
2019-05-30T01:36:47.488Z,3.92
2019-05-30T01:38:50.972Z,4.20
2019-05-30T01:40:54.497Z,4.22
2019-05-30T01:42:58.331Z,4.58
2019-05-30T01:45:02.590Z,4.80
2019-05-30T01:49:10.219Z,4.10
2019-05-30T01:51:14.110Z,4.42
2019-05-30T01:53:17.905Z,3.77
2019-05-30T01:55:21.707Z,4.58
2019-05-30T01:57:25.521Z,4.47
2019-05-30T01:59:29.315Z,4.10
2019-05-30T02:01:32.770Z,4.58
2019-05-30T02:03:36.577Z,3.30
2019-05-30T02:05:40.461Z,5.17
2019-05-30T02:07:44.088Z,4.00
2019-05-30T02:09:47.552Z,2.87
2019-05-30T02:11:51.021Z,3.95
2019-05-30T02:13:54.853Z,3.75
2019-05-30T02:15:59.476Z,3.22
2019-05-30T02:18:03.576Z,3.47
2019-05-30T02:20:07.986Z,4.00
2019-05-30T02:22:12.023Z,3.67
2019-05-30T02:24:15.946Z,3.80
2019-05-30T02:26:19.708Z,3.40
2019-05-30T02:28:23.510Z,2.95
2019-05-30T02:30:27.318Z,3.60
2019-05-30T02:32:31.123Z,2.80
2019-05-30T02:34:35.031Z,3.40
2019-05-30T02:36:38.844Z,3.83
2019-05-30T02:38:42.311Z,3.77
2019-05-30T02:40:46.732Z,3.83
2019-05-30T02:42:50.540Z,3.25
2019-05-30T02:44:54.343Z,3.65
2019-05-30T02:46:58.141Z,2.67
2019-05-30T02:49:02.681Z,3.90
2019-05-30T02:51:07.917Z,3.22
2019-05-30T02:53:13.148Z,2.80
2019-05-30T02:55:18.372Z,3.00
2019-05-30T02:57:22.178Z,2.70
2019-05-30T02:59:25.668Z,2.80
2019-05-30T03:01:29.581Z,3.10
2019-05-30T03:03:33.368Z,3.35
2019-05-30T03:05:36.826Z,3.02
2019-05-30T03:07:40.664Z,3.35
2019-05-30T03:09:44.136Z,2.75
2019-05-30T03:11:47.974Z,2.95
2019-05-30T03:13:51.440Z,2.08
2019-05-30T03:15:55.270Z,2.70
2019-05-30T03:17:59.189Z,2.95
2019-05-30T03:20:11.084Z,3.40
2019-05-30T03:22:11.425Z,3.17
2019-05-30T03:24:15.409Z,3.58
2019-05-30T03:26:19.295Z,2.80
2019-05-30T03:28:23.217Z,2.65
2019-05-30T03:30:29.471Z,2.85
2019-05-30T03:33:03.287Z,2.98
2019-05-30T03:34:38.107Z,2.80
2019-05-30T03:36:41.908Z,3.27
2019-05-30T03:38:45.790Z,3.50
2019-05-30T03:40:49.614Z,2.90
2019-05-30T03:42:53.096Z,2.87
2019-05-30T03:44:56.995Z,3.30
2019-05-30T03:47:03.775Z,2.72
2019-05-30T03:49:10.691Z,3.20
2019-05-30T03:51:15.432Z,2.50
2019-05-30T03:53:19.679Z,3.17
2019-05-30T03:55:24.303Z,2.58
2019-05-30T03:57:29.644Z,2.90
2019-05-30T03:59:34.968Z,2.52
2019-05-30T04:01:42.886Z,2.98
2019-05-30T04:03:48.326Z,3.30
2019-05-30T04:05:53.756Z,2.65
2019-05-30T04:07:57.821Z,2.87
2019-05-30T04:10:02.592Z,3.08
2019-05-30T04:12:09.893Z,2.98
2019-05-30T04:14:15.653Z,2.35
2019-05-30T04:16:19.930Z,2.90
2019-05-30T04:18:23.386Z,3.05
2019-05-30T04:20:27.234Z,2.65
2019-05-30T04:22:31.027Z,2.35
2019-05-30T04:24:34.836Z,2.72
2019-05-30T04:26:38.636Z,3.30
2019-05-30T04:28:42.452Z,2.92
2019-05-30T04:30:45.985Z,3.12
2019-05-30T04:34:53.751Z,3.00
2019-05-30T04:36:57.558Z,3.35
2019-05-30T04:39:01.355Z,2.60
2019-05-30T04:41:06.693Z,2.80
2019-05-30T04:43:11.211Z,2.72
2019-05-30T04:45:15.990Z,3.67
2019-05-30T04:47:20.914Z,2.87
2019-05-30T04:49:24.879Z,2.85
2019-05-30T04:51:28.336Z,2.85
2019-05-30T04:53:32.162Z,3.15
2019-05-30T04:55:35.984Z,2.58
2019-05-30T04:57:39.872Z,3.00
2019-05-30T04:59:43.687Z,2.70
2019-05-30T05:01:47.578Z,2.40
2019-05-30T05:03:51.386Z,3.10
2019-05-30T05:05:55.288Z,2.67
2019-05-30T05:07:59.040Z,2.83
2019-05-30T05:10:02.888Z,3.02
2019-05-30T05:12:06.641Z,2.85
2019-05-30T05:14:10.486Z,2.55
2019-05-30T05:16:26.098Z,2.77
2019-05-30T05:18:21.119Z,2.75
2019-05-30T05:20:25.178Z,2.70
2019-05-30T05:22:28.981Z,2.85
2019-05-30T05:24:32.735Z,2.60
2019-05-30T05:26:36.593Z,2.87
2019-05-30T05:28:40.387Z,2.72
2019-05-30T05:30:44.195Z,3.08
2019-05-30T05:32:47.671Z,3.17
2019-05-30T05:34:52.138Z,2.45
2019-05-30T05:36:56.109Z,2.10
2019-05-30T05:38:59.655Z,2.98
2019-05-30T05:41:03.515Z,2.65
2019-05-30T05:43:06.975Z,2.55
2019-05-30T05:45:12.131Z,2.45
2019-05-30T05:47:16.384Z,3.27
2019-05-30T05:51:24.823Z,2.50
2019-05-30T05:53:29.068Z,2.65
2019-05-30T05:55:33.050Z,2.87
2019-05-30T05:57:37.048Z,2.00
2019-05-30T05:59:40.795Z,2.05
2019-05-30T06:01:44.595Z,2.47
2019-05-30T06:03:48.426Z,2.62
2019-05-30T06:05:53.570Z,2.10
2019-05-30T06:07:57.755Z,2.55
2019-05-30T06:10:01.997Z,2.37
2019-05-30T06:14:36.193Z,2.90
2019-05-30T06:16:39.959Z,2.30
2019-05-30T06:18:43.801Z,2.67
2019-05-30T06:20:47.916Z,2.75
2019-05-30T06:22:51.420Z,2.58
2019-05-30T06:24:54.910Z,2.30
2019-05-30T06:26:58.701Z,2.55
2019-05-30T06:29:02.785Z,2.85
2019-05-30T06:31:07.420Z,2.17
2019-05-30T06:33:11.229Z,2.20
2019-05-30T06:35:14.782Z,2.62
2019-05-30T06:37:19.200Z,2.10
2019-05-30T06:41:27.758Z,1.80
2019-05-30T06:43:31.634Z,2.33
2019-05-30T06:45:35.556Z,1.85
2019-05-30T06:47:39.447Z,2.27
2019-05-30T06:49:42.925Z,1.90
2019-05-30T06:51:46.406Z,2.02
2019-05-30T06:53:49.891Z,2.55
2019-05-30T06:55:53.718Z,1.80
2019-05-30T06:57:57.591Z,1.98
2019-05-30T07:00:01.179Z,2.62
2019-05-30T07:02:04.996Z,1.62
2019-05-30T07:04:09.297Z,2.20
2019-05-30T07:08:16.788Z,1.90
2019-05-30T07:10:20.691Z,2.02
2019-05-30T07:12:26.344Z,2.40
2019-05-30T07:14:31.359Z,2.17
2019-05-30T07:16:37.813Z,2.30
2019-05-30T07:18:43.292Z,2.30
2019-05-30T07:20:47.244Z,2.80
2019-05-30T07:22:51.147Z,2.20
2019-05-30T07:24:54.625Z,2.00
2019-05-30T07:26:58.430Z,2.17
2019-05-30T07:29:02.242Z,2.08
2019-05-30T07:31:06.149Z,2.27
2019-05-30T07:33:09.691Z,1.70
2019-05-30T07:35:13.832Z,1.87
2019-05-30T07:37:17.360Z,1.87
2019-05-30T07:39:21.263Z,1.70
2019-05-30T07:41:25.556Z,2.33
2019-05-30T07:43:32.335Z,2.17
2019-05-30T07:45:36.453Z,2.12
2019-05-30T07:47:40.362Z,1.70
2019-05-30T07:49:44.222Z,1.77
2019-05-30T07:51:48.101Z,1.50
2019-05-30T07:53:51.860Z,1.32
2019-05-30T07:55:55.344Z,1.47
2019-05-30T07:57:58.834Z,1.57
2019-05-30T08:00:02.484Z,2.20
2019-05-30T08:02:09.986Z,1.22
2019-05-30T08:04:13.182Z,1.80
2019-05-30T08:06:17.006Z,1.70
2019-05-30T08:08:20.522Z,1.15
2019-05-30T08:10:24.478Z,1.45
2019-05-30T08:12:28.035Z,1.40
2019-05-30T08:14:33.162Z,1.60
2019-05-30T08:16:37.491Z,1.50
2019-05-30T08:18:42.587Z,1.82
2019-05-30T08:20:46.349Z,1.20
2019-05-30T08:22:50.140Z,1.17
2019-05-30T08:24:53.951Z,1.52
2019-05-30T08:26:57.451Z,1.00
2019-05-30T08:29:01.313Z,1.05
2019-05-30T08:31:05.109Z,1.30
2019-05-30T08:33:09.029Z,1.02
2019-05-30T08:35:12.927Z,1.40
2019-05-30T08:37:16.466Z,1.27
2019-05-30T08:39:20.379Z,1.07
2019-05-30T08:41:24.511Z,1.32
2019-05-30T08:43:29.218Z,0.90
2019-05-30T08:45:33.680Z,1.20
2019-05-30T08:49:42.865Z,1.42
2019-05-30T08:51:46.663Z,2.08
2019-05-30T08:53:50.156Z,1.55
2019-05-30T08:55:54.013Z,1.42
2019-05-30T08:57:57.881Z,1.50
2019-05-30T09:00:01.665Z,1.57
2019-05-30T09:02:05.581Z,1.17
2019-05-30T09:04:09.691Z,1.70
2019-05-30T09:06:13.473Z,1.00
2019-05-30T09:08:17.534Z,1.07
2019-05-30T09:10:21.498Z,0.90
2019-05-30T09:12:25.297Z,1.10
2019-05-30T09:14:29.107Z,1.85
2019-05-30T09:16:32.908Z,1.00
2019-05-30T09:18:37.961Z,0.95
2019-05-30T09:20:43.392Z,0.75
2019-05-30T09:22:47.716Z,0.82
2019-05-30T09:24:51.589Z,1.00
2019-05-30T09:26:55.423Z,1.20
2019-05-30T09:28:59.297Z,0.90
2019-05-30T09:31:03.317Z,0.78
2019-05-30T09:33:07.201Z,1.17
2019-05-30T09:35:12.208Z,1.00
2019-05-30T09:37:15.969Z,1.10
2019-05-30T09:39:19.757Z,1.00
2019-05-30T09:41:23.570Z,1.00
2019-05-30T09:43:27.350Z,0.90
2019-05-30T09:45:31.107Z,0.67
2019-05-30T09:47:35.062Z,0.80
2019-05-30T09:49:38.545Z,1.30
2019-05-30T09:51:44.144Z,1.05
2019-05-30T09:53:50.460Z,1.12
2019-05-30T09:55:54.364Z,0.85
2019-05-30T09:57:58.186Z,1.00
2019-05-30T10:00:02.086Z,0.80
2019-05-30T10:02:07.419Z,0.68
2019-05-30T10:04:11.873Z,0.62
2019-05-30T10:06:28.376Z,1.10
2019-05-30T10:08:21.298Z,1.00
2019-05-30T10:10:25.491Z,0.90
2019-05-30T10:12:29.389Z,0.72
2019-05-30T10:14:32.867Z,0.80
2019-05-30T10:16:36.686Z,1.20
2019-05-30T10:18:40.201Z,2.17
2019-05-30T10:20:44.638Z,0.68
2019-05-30T10:22:50.825Z,0.95
2019-05-30T10:24:54.773Z,1.10
2019-05-30T10:26:58.325Z,0.88
2019-05-30T10:29:02.193Z,1.15
2019-05-30T10:31:06.055Z,0.80
2019-05-30T10:33:09.878Z,1.20
2019-05-30T10:35:13.886Z,0.78
2019-05-30T10:37:17.796Z,0.82
2019-05-30T10:39:21.596Z,0.88
2019-05-30T10:41:25.501Z,0.98
2019-05-30T10:43:29.392Z,0.98
2019-05-30T10:45:33.204Z,1.07
2019-05-30T10:47:36.687Z,1.27
2019-05-30T10:49:40.720Z,0.98
2019-05-30T10:51:46.160Z,1.17
2019-05-30T10:53:50.833Z,0.88
2019-05-30T10:55:56.517Z,1.20
2019-05-30T10:58:00.536Z,0.62
2019-05-30T11:00:09.715Z,1.10
2019-05-30T11:02:13.668Z,1.20
2019-05-30T11:04:17.670Z,1.25
2019-05-30T11:06:22.751Z,0.90
2019-05-30T11:08:27.517Z,1.07
2019-05-30T11:10:35.596Z,1.15
2019-05-30T11:12:39.519Z,0.70
2019-05-30T11:14:43.303Z,0.98
2019-05-30T11:16:48.538Z,1.27
2019-05-30T11:18:54.375Z,1.10
2019-05-30T11:20:58.736Z,1.05
2019-05-30T11:23:02.626Z,0.85
2019-05-30T11:25:06.663Z,0.90
2019-05-30T11:27:10.545Z,0.90
2019-05-30T11:29:14.033Z,0.80
2019-05-30T11:31:18.230Z,1.20
2019-05-30T11:33:22.111Z,0.93
2019-05-30T11:35:25.950Z,1.10
2019-05-30T11:37:29.422Z,1.42
2019-05-30T11:39:33.206Z,0.95
2019-05-30T11:41:37.094Z,1.65
2019-05-30T11:43:44.331Z,0.75
2019-05-30T11:45:47.827Z,0.85
2019-05-30T11:48:00.083Z,0.72
2019-05-30T11:50:06.187Z,1.03
2019-05-30T11:52:09.986Z,0.88
2019-05-30T11:54:13.976Z,0.90
2019-05-30T11:56:17.995Z,1.65
2019-05-30T11:58:22.641Z,1.00
2019-05-30T12:00:26.635Z,1.10
2019-05-30T12:02:33.145Z,1.22
2019-05-30T12:04:36.928Z,1.15
2019-05-30T12:06:40.835Z,0.82
2019-05-30T12:08:45.269Z,1.25
2019-05-30T12:10:51.080Z,1.10
2019-05-30T12:12:55.537Z,0.90
2019-05-30T12:14:59.444Z,1.27
2019-05-30T12:17:03.438Z,1.52
2019-05-30T12:19:06.971Z,1.32
2019-05-30T12:21:10.784Z,1.37
2019-05-30T12:23:15.637Z,1.20
2019-05-30T12:25:19.430Z,1.40
2019-05-30T12:27:23.474Z,1.22
2019-05-30T12:29:27.372Z,1.05
2019-05-30T12:31:31.251Z,1.17
2019-05-30T12:33:36.834Z,0.72
2019-05-30T12:35:40.776Z,1.05
2019-05-30T12:37:55.011Z,1.10
2019-05-30T12:39:49.928Z,1.20
2019-05-30T12:41:55.382Z,0.83
2019-05-30T12:43:59.237Z,1.30
2019-05-30T12:46:03.294Z,1.40
2019-05-30T12:48:06.890Z,1.17
2019-05-30T12:50:11.703Z,1.50
2019-05-30T12:52:15.615Z,1.37
2019-05-30T12:54:19.838Z,1.30
2019-05-30T12:56:23.732Z,1.20
2019-05-30T12:58:27.524Z,1.75
2019-05-30T13:00:32.471Z,1.20
2019-05-30T13:02:36.366Z,1.00
2019-05-30T13:04:40.165Z,1.25
2019-05-30T13:06:43.979Z,1.30
2019-05-30T13:08:47.829Z,0.90
2019-05-30T13:10:51.761Z,1.12
2019-05-30T13:12:55.713Z,1.00
2019-05-30T13:14:59.658Z,1.07
2019-05-30T13:17:04.035Z,1.30
2019-05-30T13:19:08.219Z,1.20
2019-05-30T13:21:12.118Z,1.35
2019-05-30T13:23:15.981Z,1.40
2019-05-30T13:25:19.721Z,1.00
2019-05-30T13:27:23.487Z,1.60
2019-05-30T13:29:28.204Z,1.30
2019-05-30T13:31:32.115Z,0.90
2019-05-30T13:33:38.296Z,0.98
2019-05-30T13:35:40.760Z,1.17
2019-05-30T13:37:44.303Z,1.25
2019-05-30T13:39:47.855Z,1.10
2019-05-30T13:41:51.712Z,1.12
2019-05-30T13:43:55.593Z,1.55
2019-05-30T13:46:00.148Z,1.80
2019-05-30T13:48:04.819Z,1.32
2019-05-30T13:52:13.158Z,0.73
2019-05-30T13:54:17.162Z,1.07
2019-05-30T13:56:21.023Z,0.88
2019-05-30T13:58:24.594Z,1.40
2019-05-30T14:00:28.563Z,1.07
2019-05-30T14:02:32.530Z,1.00
2019-05-30T14:04:37.566Z,1.20
2019-05-30T14:06:41.660Z,0.90
2019-05-30T14:08:45.505Z,1.10
2019-05-30T14:10:52.459Z,1.27
2019-05-30T14:13:00.733Z,1.62
2019-05-30T14:15:14.287Z,1.40
2019-05-30T14:17:17.511Z,1.20
2019-05-30T14:19:21.308Z,1.07
2019-05-30T14:21:24.885Z,0.90
2019-05-30T14:23:28.780Z,1.10
2019-05-30T14:25:32.609Z,1.10
2019-05-30T14:27:36.524Z,1.27
2019-05-30T14:29:40.330Z,1.30
2019-05-30T14:31:43.871Z,1.35
2019-05-30T14:33:47.733Z,1.32
2019-05-30T14:35:51.276Z,1.45
2019-05-30T14:37:55.115Z,1.37
2019-05-30T14:39:58.968Z,1.40
2019-05-30T14:42:03.162Z,1.30
2019-05-30T14:44:07.218Z,1.20
2019-05-30T14:46:11.052Z,1.37
2019-05-30T14:48:14.851Z,1.32
2019-05-30T14:50:18.974Z,1.60
2019-05-30T14:52:22.862Z,1.30
2019-05-30T14:54:26.329Z,1.20
2019-05-30T14:56:30.162Z,1.15
2019-05-30T14:58:33.967Z,1.72
2019-05-30T15:00:37.884Z,1.60
2019-05-30T15:02:41.905Z,2.10
2019-05-30T15:04:45.399Z,3.65
2019-05-30T15:08:54.325Z,2.20
2019-05-30T15:10:58.203Z,2.15
2019-05-30T15:13:02.041Z,1.35
2019-05-30T15:15:07.908Z,1.27
2019-05-30T15:17:12.152Z,1.42
2019-05-30T15:19:16.521Z,1.60
2019-05-30T15:21:20.135Z,1.72
2019-05-30T15:23:23.998Z,1.67
2019-05-30T15:25:27.540Z,1.70
2019-05-30T15:27:31.401Z,1.22
2019-05-30T15:29:34.964Z,1.35
2019-05-30T15:31:39.920Z,1.47
2019-05-30T15:33:43.679Z,1.50
2019-05-30T15:35:47.520Z,1.40
2019-05-30T15:37:51.443Z,1.95
2019-05-30T15:39:55.276Z,1.47
2019-05-30T15:41:59.142Z,6.10
2019-05-30T15:44:03.244Z,2.17
2019-05-30T15:46:07.831Z,3.72
2019-05-30T15:48:12.300Z,2.85
2019-05-30T15:50:16.980Z,1.47
2019-05-30T15:52:21.630Z,1.27
2019-05-30T15:54:25.438Z,1.90
2019-05-30T15:56:29.242Z,1.55
2019-05-30T15:58:32.737Z,1.92
2019-05-30T16:00:37.087Z,1.82
2019-05-30T16:02:40.803Z,3.58
2019-05-30T16:04:44.421Z,3.42
2019-05-30T16:06:48.249Z,1.93
2019-05-30T16:08:52.045Z,1.67
2019-05-30T16:10:56.874Z,2.15
2019-05-30T16:13:00.879Z,1.77
2019-05-30T16:15:06.171Z,2.00
2019-05-30T16:17:11.777Z,5.75
2019-05-30T16:19:22.024Z,7.12
2019-05-30T16:21:22.349Z,6.20
2019-05-30T16:23:26.441Z,5.67
2019-05-30T16:25:31.372Z,2.58
2019-05-30T16:27:36.876Z,3.05
2019-05-30T16:29:40.817Z,1.85
2019-05-30T16:31:44.288Z,6.45
2019-05-30T16:33:48.225Z,4.58
2019-05-30T16:35:52.034Z,2.58
2019-05-30T16:37:55.932Z,4.87
2019-05-30T16:40:05.943Z,3.70
2019-05-30T16:42:05.373Z,2.22
2019-05-30T16:44:08.874Z,2.75
2019-05-30T16:46:12.774Z,2.17
2019-05-30T16:48:16.574Z,2.27
2019-05-30T16:50:22.754Z,1.82
2019-05-30T16:52:27.292Z,1.45
2019-05-30T16:54:32.361Z,2.37
2019-05-30T16:56:36.180Z,1.67
2019-05-30T16:58:40.002Z,1.65
2019-05-30T17:00:44.199Z,1.95
2019-05-30T17:02:49.125Z,1.45
2019-05-30T17:04:53.025Z,2.02
2019-05-30T17:06:56.502Z,1.98
2019-05-30T17:09:00.007Z,2.20
2019-05-30T17:11:03.552Z,1.77
2019-05-30T17:13:07.436Z,1.82
2019-05-30T17:15:11.625Z,1.67
2019-05-30T17:17:16.243Z,2.92
2019-05-30T17:19:22.299Z,2.70
2019-05-30T17:21:26.818Z,1.65
2019-05-30T17:25:33.826Z,1.67
2019-05-30T17:27:37.732Z,1.90
2019-05-30T17:29:41.511Z,1.87
2019-05-30T17:31:44.988Z,2.30
2019-05-30T17:33:48.835Z,1.77
2019-05-30T17:35:52.639Z,1.70
2019-05-30T17:37:56.459Z,1.62
2019-05-30T17:40:00.322Z,1.80
2019-05-30T17:42:04.232Z,1.37
2019-05-30T17:44:09.064Z,2.08
2019-05-30T17:46:12.880Z,2.52
2019-05-30T17:48:17.037Z,1.77
2019-05-30T17:50:21.732Z,1.75
2019-05-30T17:52:25.796Z,1.50
2019-05-30T17:54:30.018Z,1.57
2019-05-30T17:56:33.654Z,1.70
2019-05-30T17:58:37.524Z,1.40
2019-05-30T18:00:41.025Z,1.52
2019-05-30T18:02:44.924Z,1.02
2019-05-30T18:04:48.725Z,0.95
2019-05-30T18:06:52.225Z,1.77
2019-05-30T18:08:56.131Z,0.90
2019-05-30T18:10:59.580Z,0.80
2019-05-30T18:13:03.431Z,3.08
2019-05-30T18:15:11.126Z,4.35
2019-05-30T18:17:15.095Z,0.95
2019-05-30T18:19:18.761Z,1.02
2019-05-30T18:21:23.403Z,2.10
2019-05-30T18:23:27.604Z,0.93
2019-05-30T18:25:31.856Z,1.20
2019-05-30T18:27:35.781Z,1.20
2019-05-30T18:29:39.711Z,1.10
2019-05-30T18:31:43.603Z,1.10
2019-05-30T18:33:47.203Z,0.90
2019-05-30T18:35:51.096Z,1.53
2019-05-30T18:37:54.936Z,1.25
2019-05-30T18:39:58.815Z,1.10
2019-05-30T18:42:02.714Z,1.27
2019-05-30T18:44:06.617Z,1.67
2019-05-30T18:46:10.520Z,1.57
2019-05-30T18:48:14.293Z,2.08
2019-05-30T18:50:18.220Z,1.52
2019-05-30T18:52:22.025Z,1.52
2019-05-30T18:54:26.848Z,1.15
2019-05-30T18:56:30.809Z,1.65
2019-05-30T18:58:34.758Z,1.57
2019-05-30T19:00:38.523Z,1.65
2019-05-30T19:02:42.302Z,1.45
2019-05-30T19:04:46.160Z,1.57
2019-05-30T19:06:49.651Z,1.57
2019-05-30T19:08:54.595Z,1.67
2019-05-30T19:10:58.501Z,1.37
2019-05-30T19:13:01.994Z,1.60
2019-05-30T19:15:06.936Z,1.62
2019-05-30T19:17:10.474Z,2.27
2019-05-30T19:19:14.322Z,1.87
2019-05-30T19:21:18.241Z,1.87
2019-05-30T19:23:21.713Z,1.72
2019-05-30T19:25:25.625Z,2.10
2019-05-30T19:27:32.470Z,1.75
2019-05-30T19:29:35.011Z,1.72
2019-05-30T19:31:38.881Z,1.80
2019-05-30T19:33:42.752Z,4.47
2019-05-30T19:35:49.426Z,4.58
2019-05-30T19:37:51.433Z,2.62
2019-05-30T19:39:55.329Z,1.98
2019-05-30T19:41:59.205Z,1.70
2019-05-30T19:44:03.332Z,1.92
2019-05-30T19:46:07.229Z,1.90
2019-05-30T19:48:11.127Z,1.70
2019-05-30T19:50:14.672Z,1.60
2019-05-30T19:52:18.475Z,2.02
2019-05-30T19:54:21.947Z,1.90
2019-05-30T19:56:25.816Z,1.98
2019-05-30T19:58:29.765Z,2.22
2019-05-30T20:00:34.060Z,2.05
2019-05-30T20:02:40.349Z,1.92
2019-05-30T20:04:44.524Z,2.25
2019-05-30T20:06:48.424Z,2.00
2019-05-30T20:08:55.845Z,1.85
2019-05-30T20:10:57.538Z,1.77
2019-05-30T20:13:01.360Z,2.08
2019-05-30T20:15:10.366Z,1.35
2019-05-30T20:17:14.196Z,2.10
2019-05-30T20:19:18.078Z,2.20
2019-05-30T20:21:22.054Z,2.05
2019-05-30T20:23:25.917Z,1.98
2019-05-30T20:25:29.809Z,1.98
2019-05-30T20:27:34.655Z,2.50
2019-05-30T20:29:43.684Z,2.40
2019-05-30T20:31:45.795Z,1.50
2019-05-30T20:35:53.040Z,1.90
2019-05-30T20:37:56.917Z,2.02
2019-05-30T20:40:00.827Z,1.92
2019-05-30T20:42:18.312Z,1.60
2019-05-30T20:44:10.592Z,1.95
2019-05-30T20:46:22.705Z,1.95
2019-05-30T20:48:20.015Z,1.90
2019-05-30T20:50:23.807Z,1.90
2019-05-30T20:52:27.626Z,1.90
2019-05-30T20:54:31.264Z,1.72
2019-05-30T20:56:35.277Z,2.07
2019-05-30T20:58:39.644Z,2.15
2019-05-30T21:00:43.913Z,2.05
2019-05-30T21:02:47.826Z,2.12
2019-05-30T21:04:51.687Z,2.33
2019-05-30T21:06:55.878Z,2.30
2019-05-30T21:08:59.792Z,2.60
2019-05-30T21:11:04.094Z,2.17
2019-05-30T21:13:07.903Z,2.20
2019-05-30T21:15:13.135Z,2.10
2019-05-30T21:17:16.945Z,2.65
2019-05-30T21:19:20.986Z,2.47
2019-05-30T21:21:24.910Z,2.40
2019-05-30T21:23:28.760Z,2.08
2019-05-30T21:25:35.662Z,1.92
2019-05-30T21:27:39.021Z,1.65
2019-05-30T21:29:43.242Z,2.10
2019-05-30T21:31:47.541Z,2.10
2019-05-30T21:35:54.323Z,1.98
2019-05-30T21:37:58.245Z,2.15
2019-05-30T21:40:02.036Z,2.30
2019-05-30T21:42:05.843Z,2.77
2019-05-30T21:44:09.314Z,2.00
2019-05-30T21:46:13.401Z,2.30
2019-05-30T21:48:16.953Z,2.40
2019-05-30T21:50:20.737Z,2.22
2019-05-30T21:52:24.561Z,2.10
2019-05-30T21:54:28.445Z,1.87
2019-05-30T21:56:32.564Z,2.35
2019-05-30T21:58:36.460Z,2.12
2019-05-30T22:00:48.575Z,2.25
2019-05-30T22:02:54.574Z,2.80
2019-05-30T22:04:58.052Z,2.27
2019-05-30T22:07:01.914Z,3.00
2019-05-30T22:09:06.949Z,2.42
2019-05-30T22:11:10.738Z,2.05
2019-05-30T22:13:14.557Z,2.10
2019-05-30T22:15:18.448Z,2.58
2019-05-30T22:17:22.359Z,2.80
2019-05-30T22:19:26.175Z,2.22
2019-05-30T22:21:29.956Z,2.30
2019-05-30T22:23:34.171Z,2.67
2019-05-30T22:25:37.985Z,2.17
2019-05-30T22:27:42.231Z,3.87
2019-05-30T22:29:46.427Z,2.42
2019-05-30T22:31:50.995Z,2.40
2019-05-30T22:33:55.023Z,2.20
2019-05-30T22:35:58.830Z,2.65
2019-05-30T22:38:02.639Z,2.42
2019-05-30T22:40:07.766Z,2.45
2019-05-30T22:42:11.288Z,2.65
2019-05-30T22:44:14.838Z,2.77
2019-05-30T22:46:18.660Z,3.02
2019-05-30T22:48:22.561Z,2.70
2019-05-30T22:50:26.366Z,2.47
2019-05-30T22:52:30.167Z,2.95
2019-05-30T22:54:33.971Z,3.10
2019-05-30T22:56:37.823Z,2.67
2019-05-30T22:58:41.384Z,3.20
2019-05-30T23:00:45.954Z,2.65
2019-05-30T23:02:49.944Z,2.70
2019-05-30T23:04:54.305Z,2.93
2019-05-30T23:09:01.301Z,2.62
2019-05-30T23:11:05.830Z,2.60
2019-05-30T23:13:09.624Z,3.30
2019-05-30T23:15:13.189Z,2.95
2019-05-30T23:17:17.133Z,3.00
2019-05-30T23:19:21.049Z,2.85
2019-05-30T23:21:24.821Z,2.92
2019-05-30T23:23:28.310Z,2.72
2019-05-30T23:25:32.125Z,3.02
2019-05-30T23:27:35.952Z,2.85
2019-05-30T23:29:39.828Z,2.75
2019-05-30T23:31:43.693Z,2.67
2019-05-30T23:33:48.170Z,3.87
2019-05-30T23:35:52.382Z,3.20
2019-05-30T23:37:56.720Z,3.10
2019-05-30T23:42:03.674Z,3.70
2019-05-30T23:44:11.469Z,3.95
2019-05-30T23:46:12.963Z,3.80
2019-05-30T23:48:16.766Z,3.17
2019-05-30T23:50:20.569Z,3.80
2019-05-30T23:52:24.383Z,3.40
2019-05-30T23:54:27.866Z,3.47
2019-05-30T23:56:31.794Z,4.17
2019-05-30T23:58:35.678Z,3.00
